ADDS METAR Data INFO
IDs: Format: Raw Decoded Include TAF

Data at: 0933 UTC 11 Dec 2017

KVTA 110854Z AUTO 29010KT 10SM OVC026 M01/M06 A3004 RMK AO2 SLP183 T10061061 51016
KVTA 110754Z AUTO 31011G18KT 10SM OVC028 00/M06 A3004 RMK AO2 SLP179 T00001061
KVTA 110720Z AUTO 29012KT 10SM OVC029 01/M06 A3003 RMK AO2 T00061056
KVTA 110654Z AUTO 28006KT 10SM OVC032 01/M06 A3001 RMK AO2 SLP171 T00061056
KVTA 110554Z AUTO 24009KT 10SM OVC037 01/M06 A2999 RMK AO2 SLP166 T00061056 10006 21006 53001
KVTA 110454Z AUTO 24008KT 10SM OVC040 01/M06 A2998 RMK AO2 SLP162 T00061061 400061033
KVTA 110354Z AUTO 23009KT 10SM OVC042 01/M06 A2998 RMK AO2 SLP162 T00061061
KVTA 110254Z AUTO 22005KT 10SM OVC042 M01/M06 A2999 RMK AO2 SLP165 T10061061 57004
KVTA 110154Z AUTO 21005KT 10SM OVC044 M01/M06 A2999 RMK AO2 SLP166 T10061061
KVTA 110054Z AUTO 21005KT 10SM OVC048 M01/M07 A3000 RMK AO2 SLP170 T10061067
KVTA 102354Z AUTO 22005KT 10SM BKN060 M01/M07 A3000 RMK AO2 SLP170 T10061067 10000 21017 53011
KVTA 102254Z AUTO 20004KT 10SM OVC060 M01/M07 A2998 RMK AO2 SLP160 T10061072
KVTA 102154Z AUTO 22009KT 10SM BKN090 M01/M07 A2996 RMK AO2 SLP155 T10061072
KVTA 102054Z AUTO 21012G19KT 10SM OVC090 M01/M08 A2997 RMK AO2 SLP158 T10061078 56017
KVTA 101954Z AUTO 22010G20KT 10SM BKN075 BKN100 OVC120 M01/M08 A2998 RMK AO2 SLP159 T10061078
KVTA 101854Z AUTO 23014G19KT 10SM FEW065 BKN100 M01/M08 A2999 RMK AO2 SLP166 T10111078
KVTA 101754Z AUTO 22014G18KT 10SM BKN080 M02/M08 A3002 RMK AO2 SLP176 T10171078 11017 21033 58019
KVTA 101654Z AUTO 25013G22KT 10SM FEW027 BKN075 M02/M08 A3006 RMK AO2 SLP190 T10171078
KVTA 101623Z AUTO 24018KT 10SM SCT025 BKN090 OVC110 M02/M08 A3007 RMK AO2 T10171078
KVTA 101615Z AUTO 24017G22KT 10SM SCT025 BKN029 BKN110 M02/M08 A3007 RMK AO2 T10221078
KVTA 101554Z AUTO 24016KT 10SM SCT026 BKN110 M02/M07 A3008 RMK AO2 SLP195 T10221072
KVTA 101551Z AUTO 24016KT 10SM SCT026 BKN110 M02/M07 A3008 RMK AO2
KVTA 101454Z AUTO 23010G18KT 10SM BKN022 OVC027 M02/M07 A3007 RMK AO2 SLP191 T10221067 50005
KVTA 101354Z AUTO 21009KT 10SM OVC018 M03/M07 A3007 RMK AO2 SLP192 T10281067
KVTA 101254Z AUTO 23008KT 10SM FEW015 OVC026 M03/M06 A3006 RMK AO2 SLP189 T10281061
KVTA 101221Z AUTO 24009KT 10SM BKN025 OVC030 M03/M06 A3005 RMK AO2 T10281056
KVTA 101202Z AUTO 23008KT 9SM FEW014 OVC030 M03/M06 A3005 RMK AO2 T10331056
KVTA 101154Z AUTO 23008KT 9SM FEW014 OVC029 M03/M06 A3005 RMK AO2 SLP186 T10281056 11017 21033 51011
KVTA 101152Z AUTO 23008KT 9SM FEW014 OVC029 M03/M06 A3005 RMK AO2
KVTA 101054Z AUTO 23006KT 10SM BKN032 M03/M07 A3002 RMK AO2 SLP176 T10331067
KVTA 100954Z AUTO 25006KT 10SM BKN038 M03/M07 A3002 RMK AO2 SLP174 T10331072
KVTA 100854Z AUTO 26007KT 10SM OVC041 M02/M06 A3001 RMK AO2 SLP172 T10221061 51021
KVTA 100822Z AUTO 28008KT 10SM BKN033 OVC041 M02/M06 A3001 RMK AO2 T10221061
KVTA 100754Z AUTO 28007KT 10SM BKN020 OVC027 M02/M06 A3000 RMK AO2 SLP167 T10171056
KVTA 100654Z AUTO 29007KT 10SM FEW022 BKN027 OVC035 M02/M06 A2998 RMK AO2 SLP158 T10171056
KVTA 100615Z AUTO 29006KT 10SM FEW019 BKN029 OVC035 M02/M06 A2996 RMK AO2 T10171056
KVTA 100607Z AUTO 30010KT 10SM SCT019 SCT029 OVC034 M02/M06 A2995 RMK AO2 T10171056
KVTA 100554Z AUTO 30008KT 10SM SCT019 BKN024 OVC039 M02/M05 A2995 RMK AO2 SLP149 60000 T10171050 11011 21028 51024
KVTA 100520Z AUTO 31008KT 9SM SCT014 OVC020 M02/M04 A2994 RMK AO2 T10171044
KVTA 100454Z AUTO 28007KT 8SM OVC014 M02/M04 A2993 RMK AO2 SLP142 T10171039 400171100
KVTA 100428Z AUTO 25008KT 7SM OVC014 M02/M04 A2992 RMK AO2 T10171039
KVTA 100354Z AUTO 26008KT 8SM OVC016 M02/M04 A2990 RMK AO2 SLP136 T10171039
KVTA 100336Z AUTO 26008KT 8SM OVC016 M02/M04 A2989 RMK AO2 T10221044
KVTA 100254Z AUTO 25009KT 7SM OVC013 M02/M04 A2987 RMK AO2 SNE13 SLP126 P0000 60000 T10221044 51012
KVTA 100154Z AUTO 20006KT 3SM -SN BR OVC014 M03/M04 A2986 RMK AO2 SNB51 SLP123 P0000 T10281044
KVTA 100126Z AUTO 20007KT 8SM OVC014 M03/M04 A2986 RMK AO2 T10281044
KVTA 100054Z AUTO 22009KT 9SM FEW012 SCT019 OVC025 M03/M05 A2986 RMK AO2 SNE2356 SLP121 P0000 T10281050
KVTA 100038Z AUTO 24007KT 9SM SCT012 BKN026 OVC050 M03/M05 A2985 RMK AO2 SNE2356 P0000 T10281050
KVTA 100030Z AUTO 24008KT 8SM BKN012 BKN026 OVC050 M03/M05 A2985 RMK AO2 SNE2356 P0000 T10281050
KVTA 092354Z AUTO 24008KT 6SM -SN BR SCT012 SCT028 OVC047 M03/M05 A2984 RMK AO2 SNE23B44 SLP116 P0000 60000 T10281050 10017 21028 53015
KVTA 092254Z AUTO 25009KT 3SM -SN BR SCT010 OVC032 M03/M05 A2982 RMK AO2 SLP109 P0000 T10281050
KVTA 092249Z AUTO 24010KT 3SM -SN BR SCT010 OVC028 M03/M05 A2981 RMK AO2 P0000
KVTA 092222Z AUTO 24012KT 2 1/2SM -SN SCT015 OVC024 M02/M05 A2980 RMK AO2 P0000 T10221050
KVTA 092154Z AUTO 21007KT 1 1/4SM -SN BR SCT015 BKN020 OVC024 M02/M04 A2979 RMK AO2 SLP100 P0000 T10221039